Time;durP1;ratioP1;P1;durP2;ratioP2;P2;SDS_P1;SDS_P2;PMS_P1;PMS_P2;Temp;Humidity;BMP_temperature;BMP_pressure;BME280_temperature;BME280_humidity;BME280_pressure;Samples;Min_cycle;Max_cycle;Signal;HPM_P1;HPM_P2
2022/08/08 00:01:48;;;;;;;12.00;10.77;;;;;;;16.28;70.70;102421.44;5040227;28;20048;-74
2022/08/08 00:04:31;;;;;;;12.25;10.40;;;;;;;16.28;70.41;102421.44;5033626;28;20029;-75
2022/08/08 00:07:20;;;;;;;15.13;11.10;;;;;;;16.08;71.79;102420.44;5045589;28;20103;-75
2022/08/08 00:10:00;;;;;;;11.63;10.23;;;;;;;16.16;71.00;102422.41;5043101;28;20469;-73
2022/08/08 00:12:32;;;;;;;11.80;10.60;;;;;;;16.00;71.90;102411.50;5040143;28;20782;-73
2022/08/08 00:15:21;;;;;;;12.23;11.02;;;;;;;16.19;70.95;102424.81;5040014;28;20036;-73
2022/08/08 00:17:58;;;;;;;;;;;;;;;16.44;68.88;102427.09;5013490;28;20420;-72
2022/08/08 00:20:32;;;;;;;12.37;10.53;;;;;;;16.00;72.04;102427.19;5018971;28;20281;-73
2022/08/08 00:23:06;;;;;;;12.02;10.82;;;;;;;16.23;70.98;102426.25;5041873;28;20044;-73
2022/08/08 00:25:39;;;;;;;12.90;10.30;;;;;;;16.01;72.00;102423.66;5038312;28;20025;-75
2022/08/08 00:28:08;;;;;;;11.27;10.15;;;;;;;15.85;72.56;102424.84;5046279;28;20098;-73
2022/08/08 00:30:39;;;;;;;11.23;10.02;;;;;;;15.82;72.31;102419.84;5023004;28;20052;-73
2022/08/08 00:33:12;;;;;;;12.68;10.80;;;;;;;15.77;72.80;102406.31;5036372;28;20063;-73
2022/08/08 00:36:19;;;;;;;11.98;10.02;;;;;;;15.90;72.51;102412.25;5038145;28;20056;-73
2022/08/08 00:38:53;;;;;;;11.10;9.90;;;;;;;15.85;72.95;102419.63;5027683;28;20147;-72
2022/08/08 00:41:27;;;;;;;11.35;10.15;;;;;;;15.80;72.83;102406.06;5041194;28;20021;-73
2022/08/08 00:44:18;;;;;;;12.00;9.25;;;;;;;15.93;71.79;102409.38;5027339;28;20477;-74
2022/08/08 00:47:05;;;;;;;12.80;8.73;;;;;;;15.85;72.41;102409.16;5042021;28;20029;-73
2022/08/08 00:49:40;;;;;;;11.55;8.82;;;;;;;15.87;72.34;102412.47;5044068;28;20095;-72
2022/08/08 00:52:30;;;;;;;9.30;8.13;;;;;;;15.81;72.38;102402.50;5038956;28;20033;-74
2022/08/08 00:55:52;;;;;;;9.38;8.13;;;;;;;15.79;72.86;102404.41;5030587;28;20035;-73
2022/08/08 00:58:56;;;;;;;10.38;8.25;;;;;;;15.69;73.23;102406.06;4981416;28;20684;-73
2022/08/08 01:02:20;;;;;;;11.52;8.13;;;;;;;15.84;72.15;102406.66;4887907;29;20048;-73
2022/08/08 01:05:07;;;;;;;10.20;8.05;;;;;;;15.77;72.53;102406.31;4807878;29;20069;-73
2022/08/08 01:07:38;;;;;;;11.40;8.00;;;;;;;15.56;73.70;102403.56;4814191;29;20091;-73
2022/08/08 01:10:28;;;;;;;9.55;8.45;;;;;;;15.63;73.38;102398.72;4808233;29;20122;-73
2022/08/08 01:13:28;;;;;;;10.20;7.72;;;;;;;15.69;73.07;102397.41;4813895;29;20038;-72
2022/08/08 01:15:59;;;;;;;9.77;8.13;;;;;;;15.65;73.48;102407.25;4813583;29;20054;-72
2022/08/08 01:18:36;;;;;;;10.65;8.13;;;;;;;15.48;74.36;102392.00;4805105;29;20068;-74
2022/08/08 01:21:37;;;;;;;9.55;7.72;;;;;;;15.50;74.19;102397.97;4814635;29;20106;-74
2022/08/08 01:24:33;;;;;;;11.18;8.32;;;;;;;15.56;73.41;102402.72;4772683;29;20034;-74
2022/08/08 01:27:10;;;;;;;8.68;7.32;;;;;;;15.34;74.32;102399.16;4800430;29;20447;-72
2022/08/08 01:30:00;;;;;;;9.75;7.57;;;;;;;15.52;73.21;102406.53;4823053;29;20160;-73
2022/08/08 01:32:39;;;;;;;10.23;7.80;;;;;;;15.43;73.89;102402.84;4834989;29;20554;-72
2022/08/08 01:35:16;;;;;;;10.50;7.57;;;;;;;15.30;74.38;102402.94;4884661;28;20065;-74
2022/08/08 01:37:48;;;;;;;8.93;8.00;;;;;;;15.40;74.12;102408.31;4966883;28;20053;-72
2022/08/08 01:40:32;;;;;;;9.68;7.50;;;;;;;15.35;74.18;102406.03;4967901;28;20114;-75
2022/08/08 01:43:19;;;;;;;9.55;7.45;;;;;;;15.28;74.93;102394.41;4968388;28;20023;-72
2022/08/08 01:45:56;;;;;;;12.10;7.47;;;;;;;15.20;75.01;102407.22;4963531;28;20054;-73
2022/08/08 01:48:40;;;;;;;8.02;7.20;;;;;;;15.28;74.50;102399.63;4979481;28;20495;-73
2022/08/08 01:51:11;;;;;;;8.60;7.05;;;;;;;15.19;74.85;102400.31;4967547;28;20046;-72
2022/08/08 01:54:24;;;;;;;9.00;7.50;;;;;;;15.30;74.71;102402.09;4966707;28;20039;-74
2022/08/08 01:57:11;;;;;;;8.90;7.28;;;;;;;15.17;75.24;102402.22;4961286;28;20076;-73
2022/08/08 02:00:14;;;;;;;10.18;6.82;;;;;;;15.34;74.02;102399.16;4972091;28;20034;-72
2022/08/08 02:02:57;;;;;;;8.32;6.95;;;;;;;15.15;75.77;102398.91;5040109;28;20044;-72
2022/08/08 02:05:30;;;;;;;11.48;7.20;;;;;;;15.04;75.46;102402.31;5041751;28;20116;-72
2022/08/08 02:08:10;;;;;;;8.75;7.05;;;;;;;15.07;75.49;102396.00;5046338;28;20039;-72
2022/08/08 02:10:54;;;;;;;10.60;7.00;;;;;;;15.12;75.41;102393.91;5029639;28;20053;-73
2022/08/08 02:13:43;;;;;;;9.27;7.00;;;;;;;15.00;75.85;102389.59;5047027;28;20185;-74
2022/08/08 02:16:56;;;;;;;10.75;7.22;;;;;;;15.15;74.96;102393.69;4947337;28;20126;-73
2022/08/08 02:19:43;;;;;;;9.40;7.47;;;;;;;15.07;75.18;102390.78;4942295;28;20039;-72
2022/08/08 02:22:32;;;;;;;9.68;7.85;;;;;;;14.99;75.69;102401.00;4937036;28;20524;-72
2022/08/08 02:25:35;;;;;;;10.23;7.65;;;;;;;15.09;75.01;102394.16;4931934;29;20035;-74
2022/08/08 02:28:11;;;;;;;9.27;7.15;;;;;;;14.96;76.24;102386.38;4939819;28;20152;-73
2022/08/08 02:31:03;;;;;;;9.38;7.63;;;;;;;14.87;76.59;102398.34;4911210;29;20059;-73
2022/08/08 02:33:57;;;;;;;9.80;7.80;;;;;;;14.94;75.96;102390.88;4923920;29;20040;-73
2022/08/08 02:36:38;;;;;;;9.65;7.50;;;;;;;14.92;76.10;102392.78;4912567;29;20043;-72
2022/08/08 02:39:22;;;;;;;12.05;6.90;;;;;;;14.96;76.20;102403.84;4923572;29;20248;-72
2022/08/08 02:42:09;;;;;;;9.55;7.10;;;;;;;14.81;77.09;102411.88;4925663;29;20047;-74
2022/08/08 02:44:58;;;;;;;10.55;8.48;;;;;;;14.77;77.52;102405.22;4928119;29;20204;-73
2022/08/08 02:48:02;;;;;;;9.25;7.93;;;;;;;14.91;76.33;102396.38;4919777;29;20047;-72
2022/08/08 02:50:39;;;;;;;8.48;7.63;;;;;;;14.85;77.08;102418.56;4928336;29;20131;-73
2022/08/08 02:53:13;;;;;;;10.63;7.55;;;;;;;14.85;77.07;102417.69;4975953;28;20049;-73
2022/08/08 02:56:00;;;;;;;9.30;7.43;;;;;;;14.82;77.22;102413.53;5019030;28;20029;-73
2022/08/08 02:58:40;;;;;;;9.05;7.50;;;;;;;14.74;77.86;102426.34;5026143;28;20492;-72
2022/08/08 03:01:27;;;;;;;10.10;7.53;;;;;;;14.83;77.54;102425.66;5015288;28;20014;-75
2022/08/08 03:04:17;;;;;;;9.88;8.07;;;;;;;14.76;78.05;102419.22;5018983;28;20029;-73
2022/08/08 03:07:04;;;;;;;10.02;7.88;;;;;;;14.67;78.62;102419.88;5010853;28;20030;-72
2022/08/08 03:09:51;;;;;;;9.63;7.90;;;;;;;14.67;78.96;102414.66;5010847;28;20044;-73
2022/08/08 03:13:01;;;;;;;9.75;7.80;;;;;;;14.79;78.06;102416.38;5009297;28;20427;-72
2022/08/08 03:15:53;;;;;;;10.55;8.30;;;;;;;14.72;78.36;102406.50;5019886;28;20068;-73
2022/08/08 03:18:53;;;;;;;10.57;7.60;;;;;;;14.75;78.40;102406.28;5017816;28;20100;-72
2022/08/08 03:21:18;;;;;;;8.95;7.53;;;;;;;14.73;77.82;102406.38;4935225;28;20037;-73
2022/08/08 03:23:43;;;;;;;9.80;8.00;;;;;;;14.69;78.29;102402.34;4937551;29;20035;-73
2022/08/08 03:26:09;;;;;;;10.27;8.18;;;;;;;14.57;78.86;102395.41;4927404;29;20279;-72
2022/08/08 03:28:42;;;;;;;10.27;7.78;;;;;;;14.63;78.81;102409.81;4923815;29;20035;-72
2022/08/08 03:33:52;;;;;;;10.25;8.02;;;;;;;14.56;78.50;102402.38;4933282;29;20046;-72
2022/08/08 03:36:18;;;;;;;8.43;7.45;;;;;;;14.57;78.94;102406.69;4930251;29;20039;-73
2022/08/08 03:38:51;;;;;;;9.93;7.80;;;;;;;14.56;79.25;102404.16;4912486;29;20126;-73
2022/08/08 03:41:17;;;;;;;12.23;8.65;;;;;;;14.49;78.75;102411.63;4929656;29;20807;-72
2022/08/08 03:43:56;;;;;;;9.40;7.68;;;;;;;14.52;79.34;102410.59;4936874;29;20083;-72
2022/08/08 03:46:21;;;;;;;;;;;;;;;14.77;76.85;102413.03;4916783;29;20040;-72
2022/08/08 03:48:57;;;;;;;10.10;7.30;;;;;;;14.59;77.94;102407.41;4936781;29;20322;-73
2022/08/08 03:51:23;;;;;;;10.25;8.07;;;;;;;14.47;79.03;102412.69;4924775;29;20043;-73
2022/08/08 03:53:53;;;;;;;10.07;8.45;;;;;;;14.45;78.84;102409.31;4932671;29;20043;-72
2022/08/08 03:56:19;;;;;;;10.23;8.35;;;;;;;14.40;78.84;102406.22;4931964;29;20143;-72
2022/08/08 03:58:49;;;;;;;11.82;7.95;;;;;;;14.44;79.40;102423.31;5012662;28;20485;-73
2022/08/08 04:01:15;;;;;;;11.38;8.38;;;;;;;14.39;79.58;102414.97;5007790;28;20022;-72
2022/08/08 04:03:45;;;;;;;11.45;8.55;;;;;;;14.39;79.87;102425.41;5010451;28;20073;-72
2022/08/08 04:06:11;;;;;;;9.70;8.70;;;;;;;14.39;79.80;102420.19;5010575;28;20476;-72
2022/08/08 04:08:37;;;;;;;9.95;8.68;;;;;;;14.33;79.63;102422.31;5008501;28;20029;-73
2022/08/08 04:11:04;;;;;;;11.00;9.00;;;;;;;14.26;80.65;102425.47;5011744;28;20030;-72
2022/08/08 04:13:30;;;;;;;11.57;8.93;;;;;;;14.37;80.08;102429.94;4989581;28;20037;-72
2022/08/08 04:15:55;;;;;;;10.02;8.85;;;;;;;14.23;80.70;102423.94;5012171;28;20041;-72
2022/08/08 04:18:21;;;;;;;10.55;8.93;;;;;;;14.40;80.23;102440.16;5007341;28;20097;-71
2022/08/08 04:20:46;;;;;;;9.63;8.57;;;;;;;14.29;80.74;102441.75;5017169;28;20119;-72
2022/08/08 04:23:12;;;;;;;9.90;8.90;;;;;;;14.38;80.15;102440.25;5024590;28;20551;-72
2022/08/08 04:25:37;;;;;;;12.13;9.18;;;;;;;14.25;81.32;102440.31;5023397;28;20039;-75
2022/08/08 04:28:03;;;;;;;10.98;8.57;;;;;;;14.23;80.64;102431.75;5018029;28;20060;-72
2022/08/08 04:30:28;;;;;;;10.20;8.77;;;;;;;14.20;80.85;102426.75;5045453;28;20047;-72
2022/08/08 04:32:54;;;;;;;12.00;9.10;;;;;;;14.27;80.66;102438.41;5032913;28;20113;-72
2022/08/08 04:35:20;;;;;;;9.98;8.73;;;;;;;14.37;80.83;102448.19;5028475;28;20482;-72
2022/08/08 04:37:46;;;;;;;9.98;8.88;;;;;;;14.35;80.79;102446.53;5030288;28;20036;-72
2022/08/08 04:40:11;;;;;;;11.20;8.93;;;;;;;14.24;81.18;102438.63;5029729;28;20051;-72
2022/08/08 04:42:37;;;;;;;10.43;8.77;;;;;;;14.28;80.88;102455.75;5027065;28;20029;-72
2022/08/08 04:45:04;;;;;;;11.38;9.30;;;;;;;14.37;80.92;102458.63;5033431;28;20025;-72
2022/08/08 04:47:30;;;;;;;11.18;9.05;;;;;;;14.32;81.03;102457.19;5035502;28;20024;-72
2022/08/08 04:49:55;;;;;;;11.93;9.32;;;;;;;14.31;81.18;102465.97;5036755;28;20198;-72
2022/08/08 04:52:21;;;;;;;11.88;9.80;;;;;;;14.30;81.46;102464.31;5016677;28;20056;-73
2022/08/08 04:54:46;;;;;;;10.82;9.02;;;;;;;14.43;80.85;102468.63;5036315;28;20396;-72
2022/08/08 04:57:11;;;;;;;10.25;9.13;;;;;;;14.37;81.11;102463.88;5040905;28;20060;-72
2022/08/08 04:59:40;;;;;;;10.68;9.43;;;;;;;14.27;81.05;102467.13;5041693;28;20380;-72
2022/08/08 05:02:05;;;;;;;10.50;9.18;;;;;;;14.31;81.69;102480.78;5042121;28;20025;-71
2022/08/08 05:04:31;;;;;;;12.32;9.80;;;;;;;14.35;81.11;102472.66;5040954;28;20039;-72
2022/08/08 05:06:57;;;;;;;12.07;10.05;;;;;;;14.35;81.48;102487.47;5019862;28;20030;-72
2022/08/08 05:09:22;;;;;;;11.98;9.27;;;;;;;14.45;81.07;102482.41;5037421;28;20067;-72
2022/08/08 05:11:48;;;;;;;10.93;9.75;;;;;;;14.50;80.53;102496.84;5039624;28;20036;-72
2022/08/08 05:14:14;;;;;;;11.40;9.63;;;;;;;14.46;80.40;102473.66;5029930;28;20110;-73
2022/08/08 05:16:39;;;;;;;10.68;9.57;;;;;;;14.47;81.05;102491.00;5042656;28;20111;-75
2022/08/08 05:19:10;;;;;;;10.63;9.20;;;;;;;14.51;80.94;102487.25;5030979;28;20028;-72
2022/08/08 05:21:37;;;;;;;12.35;10.00;;;;;;;14.55;80.68;102488.69;5037533;28;20025;-72
2022/08/08 05:24:02;;;;;;;11.73;9.38;;;;;;;14.52;80.70;102484.53;5043162;28;20036;-72
2022/08/08 05:26:27;;;;;;;12.27;9.65;;;;;;;14.55;80.81;102488.69;5038059;28;20053;-72
2022/08/08 05:28:53;;;;;;;13.15;9.45;;;;;;;14.54;80.49;102487.00;5033274;28;20454;-72
2022/08/08 05:31:18;;;;;;;10.93;9.40;;;;;;;14.61;80.60;102493.44;5029666;28;20421;-72
2022/08/08 05:33:43;;;;;;;11.70;9.77;;;;;;;14.57;80.82;102486.81;5008581;28;20112;-73
2022/08/08 05:36:10;;;;;;;10.60;9.43;;;;;;;14.71;80.36;102484.00;5040272;28;20544;-72
2022/08/08 05:38:45;;;;;;;11.32;9.45;;;;;;;14.70;80.66;102498.03;5020969;28;20116;-72
2022/08/08 05:41:13;;;;;;;11.60;9.85;;;;;;;14.71;81.23;102491.84;5035763;28;20016;-75
2022/08/08 05:43:44;;;;;;;12.05;9.68;;;;;;;14.71;80.79;102494.47;5039082;28;20586;-73
2022/08/08 05:46:09;;;;;;;11.35;9.35;;;;;;;14.74;80.62;102494.25;5033759;28;20017;-72
2022/08/08 05:48:36;;;;;;;10.88;9.43;;;;;;;14.81;80.89;102495.47;5032828;28;20052;-73
2022/08/08 05:51:01;;;;;;;11.10;9.65;;;;;;;14.86;80.79;102493.34;5025457;28;20482;-72
2022/08/08 05:53:27;;;;;;;10.52;9.48;;;;;;;14.80;80.30;102499.03;5023985;28;20060;-73
2022/08/08 05:55:59;;;;;;;11.60;9.20;;;;;;;14.97;79.87;102504.81;5027780;28;20060;-73
2022/08/08 05:58:30;;;;;;;10.65;9.55;;;;;;;15.04;80.15;102500.78;5026083;28;20043;-73
2022/08/08 06:00:57;;;;;;;11.65;9.30;;;;;;;15.05;80.12;102502.44;5032032;28;20021;-73
2022/08/08 06:03:23;;;;;;;10.50;8.88;;;;;;;15.19;79.56;102504.03;5041416;28;20021;-73
2022/08/08 06:05:51;;;;;;;11.05;8.57;;;;;;;15.20;79.95;102501.31;5023071;28;20397;-73
2022/08/08 06:08:25;;;;;;;10.82;9.40;;;;;;;15.31;80.02;102503.97;5030746;28;20029;-73
2022/08/08 06:10:53;;;;;;;11.52;9.60;;;;;;;15.39;80.15;102512.06;5029428;28;20025;-73
2022/08/08 06:13:18;;;;;;;11.38;9.38;;;;;;;15.45;79.95;102495.06;5012137;28;20107;-74
2022/08/08 06:15:48;;;;;;;11.05;9.13;;;;;;;15.47;79.44;102508.84;5030547;28;20119;-73
2022/08/08 06:18:15;;;;;;;11.00;9.10;;;;;;;15.58;79.73;102505.44;5027537;28;20036;-75
2022/08/08 06:20:41;;;;;;;11.30;8.95;;;;;;;15.61;78.96;102505.22;5031145;28;20373;-73
2022/08/08 06:23:06;;;;;;;10.23;9.07;;;;;;;15.67;79.52;102515.25;5010173;28;20036;-74
2022/08/08 06:25:35;;;;;;;9.75;8.75;;;;;;;15.72;78.73;102507.88;5029253;28;20029;-73
2022/08/08 06:28:03;;;;;;;;;;;;;;;15.90;78.00;102511.69;5037878;28;20494;-73
2022/08/08 06:30:29;;;;;;;;;;;;;;;16.00;78.13;102513.56;5032456;28;19917;-73
2022/08/08 06:32:56;;;;;;;10.15;8.00;;;;;;;16.00;79.20;102506.59;5047907;28;19916;-73
2022/08/08 06:35:22;;;;;;;10.90;8.82;;;;;;;16.09;78.29;102515.47;5040785;28;20124;-73
2022/08/08 06:38:04;;;;;;;9.75;7.95;;;;;;;16.19;77.58;102521.66;5039655;28;20467;-73
2022/08/08 06:40:31;;;;;;;10.35;7.50;;;;;;;16.29;77.07;102517.38;5038746;28;20033;-73
2022/08/08 06:43:04;;;;;;;8.57;6.87;;;;;;;16.34;77.20;102520.44;5023624;28;20024;-73
2022/08/08 06:45:36;;;;;;;9.32;6.72;;;;;;;16.47;77.04;102520.31;5044668;28;20282;-73
2022/08/08 06:48:03;;;;;;;9.85;6.75;;;;;;;16.55;75.73;102527.56;5040136;28;20354;-73
2022/08/08 06:50:31;;;;;;;9.02;5.63;;;;;;;16.63;75.82;102527.78;5019509;28;20040;-73
2022/08/08 06:53:03;;;;;;;8.55;5.15;;;;;;;16.72;74.01;102524.44;5033718;28;20025;-74
2022/08/08 06:55:29;;;;;;;8.05;4.55;;;;;;;16.80;74.00;102532.50;5033271;28;20478;-74
2022/08/08 06:57:55;;;;;;;7.25;4.07;;;;;;;16.88;73.51;102530.13;5033401;28;20035;-73
2022/08/08 07:00:20;;;;;;;7.53;4.38;;;;;;;16.91;73.13;102524.63;5034556;28;20025;-75
2022/08/08 07:02:53;;;;;;;6.22;4.03;;;;;;;16.99;73.78;102519.59;5045130;28;20025;-73
2022/08/08 07:05:22;;;;;;;5.90;3.65;;;;;;;17.17;72.33;102530.34;5026880;28;20055;-74
2022/08/08 07:08:02;;;;;;;6.20;3.58;;;;;;;17.20;72.51;102534.50;5032899;28;20025;-73
2022/08/08 07:10:34;;;;;;;6.93;3.40;;;;;;;17.27;72.43;102525.19;5034137;28;20021;-74
2022/08/08 07:13:04;;;;;;;6.15;2.97;;;;;;;17.35;72.50;102530.63;5034385;28;20021;-74
2022/08/08 07:16:02;;;;;;;7.78;3.50;;;;;;;17.46;72.47;102541.03;5043247;28;20358;-74
2022/08/08 07:19:05;;;;;;;6.00;3.38;;;;;;;17.56;71.70;102542.91;5037893;28;20086;-73
2022/08/08 07:21:39;;;;;;;8.13;3.00;;;;;;;17.62;70.21;102547.63;5031007;28;20036;-74
2022/08/08 07:24:29;;;;;;;5.63;2.70;;;;;;;17.74;70.85;102546.63;5044269;28;20395;-73
2022/08/08 07:26:58;;;;;;;4.78;2.65;;;;;;;17.71;70.12;102539.81;5034443;28;20075;-74
2022/08/08 07:29:24;;;;;;;6.93;2.60;;;;;;;17.75;67.93;102535.16;5023799;28;20382;-74
2022/08/08 07:31:49;;;;;;;5.97;2.58;;;;;;;17.83;69.41;102537.97;5035424;28;20504;-75
2022/08/08 07:34:17;;;;;;;6.22;2.63;;;;;;;17.92;68.12;102547.69;5019196;28;20076;-74
2022/08/08 07:36:43;;;;;;;4.03;2.17;;;;;;;17.97;68.67;102545.50;5029303;28;20175;-74
2022/08/08 07:39:09;;;;;;;6.97;2.60;;;;;;;18.14;68.50;102551.09;5030159;28;20512;-74
2022/08/08 07:41:37;;;;;;;7.13;2.83;;;;;;;18.20;67.70;102555.81;5025925;28;20109;-75
2022/08/08 07:44:04;;;;;;;;;;;;;;;18.32;68.87;102554.75;5033615;28;20021;-74
2022/08/08 07:46:30;;;;;;;5.82;2.50;;;;;;;18.21;66.81;102541.72;5038808;28;20373;-74
2022/08/08 07:48:55;;;;;;;6.53;2.80;;;;;;;18.39;67.14;102545.38;5038199;28;20029;-73
2022/08/08 07:51:22;;;;;;;5.70;2.58;;;;;;;18.41;67.23;102538.19;5023902;28;20405;-74
2022/08/08 07:54:04;;;;;;;7.25;2.78;;;;;;;18.60;67.74;102544.44;5017945;28;20033;-74
2022/08/08 07:56:46;;;;;;;7.75;2.60;;;;;;;18.66;67.05;102549.16;5041441;28;20068;-74
2022/08/08 07:59:14;;;;;;;9.20;2.70;;;;;;;18.77;66.98;102554.34;5042599;28;20029;-74
2022/08/08 08:01:49;;;;;;;5.85;2.60;;;;;;;18.80;66.37;102559.31;5035289;28;20397;-76
2022/08/08 08:04:16;;;;;;;7.10;2.90;;;;;;;18.84;65.42;102550.19;5037425;28;20025;-73
2022/08/08 08:06:42;;;;;;;6.28;2.45;;;;;;;18.88;65.32;102562.09;5039100;28;20033;-73
2022/08/08 08:09:20;;;;;;;6.40;2.70;;;;;;;18.97;66.50;102571.75;5035086;28;20062;-73
2022/08/08 08:11:48;;;;;;;;;;;;;;;19.10;66.83;102561.81;5030765;28;20370;-74
2022/08/08 08:14:17;;;;;;;7.60;2.97;;;;;;;19.07;66.06;102562.09;5024502;28;19929;-74
2022/08/08 08:16:44;;;;;;;5.18;2.70;;;;;;;19.06;65.14;102565.69;5044805;28;20398;-74
2022/08/08 08:19:11;;;;;;;5.60;2.60;;;;;;;19.30;65.90;102561.81;5038673;28;20034;-74
2022/08/08 08:21:47;;;;;;;7.60;2.80;;;;;;;19.23;64.96;102563.34;5026234;28;20036;-74
2022/08/08 08:24:13;;;;;;;7.47;2.65;;;;;;;19.37;64.29;102570.78;5033188;28;20028;-77
2022/08/08 08:26:39;;;;;;;7.13;2.50;;;;;;;19.38;63.98;102569.81;5028484;28;20053;-74
2022/08/08 08:29:05;;;;;;;4.93;2.42;;;;;;;19.53;63.35;102578.94;5027482;28;20157;-74
2022/08/08 08:31:31;;;;;;;5.05;2.30;;;;;;;19.61;63.32;102571.22;5029391;28;20536;-74
2022/08/08 08:33:57;;;;;;;6.22;2.20;;;;;;;19.73;63.57;102573.69;5024791;28;20385;-74
2022/08/08 08:36:23;;;;;;;7.18;2.30;;;;;;;19.72;63.34;102566.75;5030234;28;20036;-74
2022/08/08 08:38:50;;;;;;;5.22;2.55;;;;;;;19.85;62.56;102576.00;5030007;28;20556;-74
2022/08/08 08:41:17;;;;;;;5.53;2.30;;;;;;;19.90;63.26;102565.03;5039246;28;20039;-74
2022/08/08 08:43:45;;;;;;;4.78;2.03;;;;;;;20.00;62.47;102581.63;5044245;28;20128;-75
2022/08/08 08:46:12;;;;;;;6.05;2.25;;;;;;;20.07;62.59;102572.19;5041368;28;20113;-75
2022/08/08 08:48:39;;;;;;;4.20;2.10;;;;;;;20.17;62.27;102572.94;5050080;28;20078;-76
2022/08/08 08:51:10;;;;;;;3.53;1.83;;;;;;;20.28;61.47;102571.09;5021467;28;20056;-77
2022/08/08 08:53:40;;;;;;;6.82;2.10;;;;;;;20.24;59.86;102583.72;5029564;28;20056;-74
2022/08/08 08:56:09;;;;;;;6.82;2.20;;;;;;;20.38;60.78;102574.53;5029691;28;20024;-74
2022/08/08 08:58:40;;;;;;;6.22;2.10;;;;;;;20.55;60.35;102579.03;5020767;28;20425;-75
2022/08/08 09:01:08;;;;;;;5.97;2.08;;;;;;;20.67;59.48;102585.75;5041949;28;20021;-75
2022/08/08 09:03:35;;;;;;;4.35;1.70;;;;;;;20.76;58.08;102567.38;5016629;28;20033;-75
2022/08/08 09:06:02;;;;;;;3.20;1.40;;;;;;;20.74;58.32;102585.16;5022896;28;20029;-75
2022/08/08 09:08:28;;;;;;;4.25;1.42;;;;;;;20.83;58.64;102584.28;5021180;28;20634;-75
2022/08/08 09:10:55;;;;;;;4.00;1.48;;;;;;;20.89;57.81;102581.03;5029689;28;20498;-75
2022/08/08 09:13:21;;;;;;;3.72;1.33;;;;;;;20.88;56.38;102587.31;5018709;28;20119;-76
2022/08/08 09:15:47;;;;;;;2.65;1.20;;;;;;;20.96;56.21;102574.19;5030429;28;20572;-74
2022/08/08 09:18:16;;;;;;;2.90;1.10;;;;;;;20.99;55.44;102580.94;5025524;28;20040;-74
2022/08/08 09:20:45;;;;;;;3.08;1.20;;;;;;;21.15;54.90;102579.28;5030471;28;20024;-75
2022/08/08 09:23:13;;;;;;;2.92;1.00;;;;;;;21.47;53.54;102583.22;5026484;28;20030;-75
2022/08/08 09:25:49;;;;;;;2.70;1.02;;;;;;;21.62;54.53;102592.25;5029440;28;20018;-75
2022/08/08 09:28:17;;;;;;;3.47;1.30;;;;;;;21.61;53.64;102580.00;5028227;28;20404;-75
2022/08/08 09:30:43;;;;;;;3.20;1.23;;;;;;;21.67;53.55;102584.66;5011859;28;20028;-75
2022/08/08 09:33:10;;;;;;;3.00;1.25;;;;;;;21.78;53.16;102577.47;5042709;28;20033;-75
2022/08/08 09:35:37;;;;;;;3.53;1.10;;;;;;;21.60;52.80;102580.97;5044319;28;20033;-75
2022/08/08 09:38:03;;;;;;;3.10;1.23;;;;;;;21.62;52.77;102576.41;5047828;28;20461;-75
2022/08/08 09:40:32;;;;;;;3.95;1.40;;;;;;;21.74;51.51;102577.78;5047315;28;20445;-75
2022/08/08 09:43:24;;;;;;;3.50;1.00;;;;;;;21.62;52.13;102584.31;5048021;28;20067;-76
2022/08/08 09:45:56;;;;;;;4.75;1.42;;;;;;;21.57;52.44;102572.56;5019575;28;20465;-75
2022/08/08 09:48:23;;;;;;;2.78;1.00;;;;;;;21.62;49.92;102571.13;5043027;28;20021;-75
2022/08/08 09:50:50;;;;;;;3.00;1.17;;;;;;;21.80;50.53;102568.41;5046447;28;20131;-75
2022/08/08 09:53:20;;;;;;;4.70;1.48;;;;;;;21.81;50.04;102574.53;5041148;28;20038;-75
2022/08/08 09:55:46;;;;;;;3.05;1.20;;;;;;;22.15;51.31;102577.19;5038733;28;20040;-75
2022/08/08 09:58:19;;;;;;;3.67;1.38;;;;;;;22.12;51.08;102578.31;5040735;28;20021;-74
2022/08/08 10:00:46;;;;;;;3.58;1.40;;;;;;;22.25;50.04;102578.72;5042807;28;20057;-75
2022/08/08 10:03:16;;;;;;;4.55;1.33;;;;;;;22.50;51.07;102586.75;5041211;28;20021;-75
2022/08/08 10:05:42;;;;;;;3.60;1.45;;;;;;;22.37;49.21;102575.81;5024050;28;20037;-74
2022/08/08 10:08:08;;;;;;;5.30;1.40;;;;;;;22.30;48.21;102566.84;5045522;28;20025;-75
2022/08/08 10:10:39;;;;;;;2.25;1.10;;;;;;;22.39;48.14;102589.69;5039748;28;20193;-75
2022/08/08 10:13:21;;;;;;;2.95;1.20;;;;;;;22.40;49.51;102580.75;5046358;28;20108;-75
2022/08/08 10:15:49;;;;;;;3.42;1.33;;;;;;;22.38;48.60;102583.56;5040159;28;20084;-75
2022/08/08 10:18:30;;;;;;;2.70;1.15;;;;;;;22.31;49.38;102586.97;5038840;28;20037;-75
2022/08/08 10:21:10;;;;;;;2.88;1.10;;;;;;;22.18;49.45;102588.25;5046122;28;20051;-75
2022/08/08 10:23:44;;;;;;;2.05;1.02;;;;;;;22.15;48.19;102587.78;5047486;28;20071;-77
2022/08/08 10:26:17;;;;;;;4.18;1.20;;;;;;;22.34;47.46;102586.69;5045227;28;20033;-75
2022/08/08 10:29:05;;;;;;;2.47;1.00;;;;;;;22.61;49.65;102583.78;5048733;28;20536;-77
2022/08/08 10:34:21;;;;;;;1.83;1.13;;;;;;;22.40;47.59;102580.75;5044407;28;20099;-75
2022/08/08 10:36:48;;;;;;;2.47;1.05;;;;;;;22.33;47.48;102579.75;5024657;28;20044;-75
2022/08/08 10:39:19;;;;;;;3.30;1.20;;;;;;;22.20;47.53;102583.66;5036254;28;20065;-75
2022/08/08 10:41:55;;;;;;;2.47;1.10;;;;;;;22.39;49.22;102573.81;5031174;28;20120;-75
2022/08/08 10:44:37;;;;;;;3.05;1.50;;;;;;;22.33;49.42;102571.81;5029059;28;20469;-75
2022/08/08 10:47:14;;;;;;;3.50;1.48;;;;;;;22.30;49.77;102580.88;5029653;28;20119;-76
2022/08/08 10:49:41;;;;;;;3.53;1.50;;;;;;;22.35;47.58;102577.75;5045040;28;20040;-76
2022/08/08 10:52:07;;;;;;;3.97;1.40;;;;;;;22.40;48.21;102575.47;5039507;28;20033;-75
2022/08/08 10:54:32;;;;;;;3.17;1.50;;;;;;;22.14;47.90;102576.38;5037337;28;20040;-76
2022/08/08 10:57:07;;;;;;;3.90;1.40;;;;;;;22.07;50.06;102575.28;5043561;28;20977;-77
2022/08/08 10:59:32;;;;;;;5.00;1.45;;;;;;;22.06;48.67;102573.66;5037790;28;20587;-75
2022/08/08 11:01:58;;;;;;;3.65;1.25;;;;;;;22.17;50.31;102564.63;5047091;28;20099;-75
2022/08/08 11:04:23;;;;;;;3.60;1.40;;;;;;;22.06;48.89;102584.22;5047182;28;20610;-76
2022/08/08 11:06:58;;;;;;;3.85;1.30;;;;;;;22.18;48.53;102577.69;5040897;28;20128;-75
2022/08/08 11:09:23;;;;;;;3.40;1.20;;;;;;;22.15;47.60;102575.38;5044023;28;20373;-78
2022/08/08 11:11:52;;;;;;;4.82;1.40;;;;;;;22.29;47.67;102573.13;5026003;28;20472;-75
2022/08/08 11:14:17;;;;;;;3.22;1.42;;;;;;;22.29;46.47;102573.13;5043390;28;20284;-75
2022/08/08 11:16:44;;;;;;;3.65;1.30;;;;;;;22.36;46.56;102568.84;5039493;28;20025;-75
2022/08/08 11:19:10;;;;;;;2.78;1.42;;;;;;;22.64;48.06;102567.59;5027991;28;20467;-75
2022/08/08 11:21:44;;;;;;;3.13;1.20;;;;;;;22.94;48.00;102568.84;5041754;28;20028;-75
2022/08/08 11:24:10;;;;;;;6.03;1.60;;;;;;;23.11;47.71;102558.22;5043697;28;20028;-75
2022/08/08 11:26:39;;;;;;;4.10;1.40;;;;;;;23.13;46.03;102557.09;5046702;28;20053;-75
2022/08/08 11:29:06;;;;;;;4.88;1.48;;;;;;;23.03;46.14;102556.44;5031785;28;20052;-76
2022/08/08 11:31:39;;;;;;;3.10;1.40;;;;;;;22.88;46.35;102558.91;5036638;28;20032;-75
2022/08/08 11:34:06;;;;;;;4.95;1.70;;;;;;;22.69;46.67;102554.69;5031209;28;20037;-76
2022/08/08 11:36:32;;;;;;;2.60;1.20;;;;;;;22.51;45.80;102556.66;5041873;28;20035;-76
2022/08/08 11:38:58;;;;;;;3.30;1.25;;;;;;;22.37;47.94;102549.38;5028435;28;20033;-75
2022/08/08 11:41:25;;;;;;;5.88;1.40;;;;;;;22.30;47.71;102549.16;5037359;28;20025;-75
2022/08/08 11:43:53;;;;;;;3.53;1.42;;;;;;;22.46;48.57;102558.94;5044232;28;20031;-77
2022/08/08 11:46:22;;;;;;;3.97;1.30;;;;;;;22.55;48.76;102551.88;5039345;28;20435;-75
2022/08/08 11:48:48;;;;;;;5.28;1.50;;;;;;;22.84;48.05;102540.84;5043718;28;20055;-76
2022/08/08 11:51:16;;;;;;;2.78;1.40;;;;;;;22.75;47.20;102543.47;5046320;28;20056;-78
2022/08/08 11:53:41;;;;;;;;;;;;;;;23.00;48.50;102551.47;5043727;28;20386;-77
2022/08/08 11:56:17;;;;;;;5.38;1.60;;;;;;;22.90;48.30;102546.34;5034955;28;19921;-79
2022/08/08 11:58:42;;;;;;;4.53;1.45;;;;;;;23.10;48.03;102541.53;5028959;28;20045;-75